createdAt,value
2016-12-20T00:00:38.728Z,3.88
2016-12-20T00:03:31.609Z,3.86
2016-12-20T00:09:19.194Z,3.84
2016-12-20T00:15:06.787Z,3.82
2016-12-20T00:18:00.574Z,3.80
2016-12-20T00:20:54.423Z,3.77
2016-12-20T00:32:29.715Z,3.65
2016-12-20T00:35:23.290Z,3.65
2016-12-20T00:41:11.805Z,3.59
2016-12-20T00:44:05.592Z,3.57
2016-12-20T00:46:58.231Z,3.53
2016-12-20T00:49:51.859Z,3.50
2016-12-20T00:52:45.638Z,3.49
2016-12-20T00:55:39.240Z,3.49
2016-12-20T00:58:32.860Z,3.48
2016-12-20T01:10:07.651Z,3.56
2016-12-20T01:13:01.431Z,3.55
2016-12-20T01:21:42.582Z,3.51
2016-12-20T01:27:29.840Z,3.52
2016-12-20T01:30:23.546Z,3.51
2016-12-20T01:33:17.282Z,3.50
2016-12-20T01:36:11.023Z,3.49
2016-12-20T01:41:58.229Z,3.55
2016-12-20T01:44:51.861Z,3.57
2016-12-20T01:47:45.484Z,3.57
2016-12-20T01:50:39.152Z,3.58
2016-12-20T01:53:32.763Z,3.58
2016-12-20T01:56:26.463Z,3.61
2016-12-20T01:59:19.989Z,3.61
2016-12-20T02:02:14.575Z,3.61
2016-12-20T02:08:00.917Z,3.57
2016-12-20T02:10:54.676Z,3.56
2016-12-20T02:13:48.212Z,3.56
2016-12-20T02:19:35.727Z,3.60
2016-12-20T02:22:29.382Z,3.62
2016-12-20T02:25:23.074Z,3.66
2016-12-20T02:28:16.746Z,3.69
2016-12-20T02:31:10.535Z,3.73
2016-12-20T02:34:04.165Z,3.77
2016-12-20T02:36:57.850Z,3.74
2016-12-20T02:39:51.397Z,3.68
2016-12-20T02:42:44.946Z,3.67
2016-12-20T02:45:38.682Z,3.66
2016-12-20T02:51:26.014Z,3.59
2016-12-20T03:00:06.976Z,3.62
2016-12-20T03:03:00.619Z,3.63
2016-12-20T03:05:54.213Z,3.63
2016-12-20T03:08:47.840Z,3.55
2016-12-20T03:11:41.511Z,3.48
2016-12-20T03:14:35.201Z,3.49
2016-12-20T03:17:29.758Z,3.50
2016-12-20T03:20:22.608Z,3.52
2016-12-20T03:23:16.299Z,3.51
2016-12-20T03:26:09.789Z,3.46
2016-12-20T03:29:04.483Z,3.44
2016-12-20T03:31:57.166Z,3.35
2016-12-20T03:34:50.773Z,3.29
2016-12-20T03:37:45.342Z,3.23
2016-12-20T03:40:38.116Z,3.16
2016-12-20T03:49:19.159Z,3.03
2016-12-20T03:52:12.859Z,3.00
2016-12-20T03:55:06.582Z,3.00
2016-12-20T03:58:00.121Z,3.01
2016-12-20T04:03:47.519Z,2.97
2016-12-20T04:06:41.230Z,2.97
2016-12-20T04:09:34.792Z,2.98
2016-12-20T04:12:28.790Z,3.00
2016-12-20T04:15:22.488Z,3.04
2016-12-20T04:18:16.056Z,3.05
2016-12-20T04:21:09.727Z,3.03
2016-12-20T04:24:03.490Z,3.04
2016-12-20T04:26:57.031Z,2.99
2016-12-20T04:29:50.741Z,2.97
2016-12-20T04:32:44.312Z,2.93
2016-12-20T04:35:37.993Z,2.91
2016-12-20T04:38:31.742Z,2.89
2016-12-20T04:41:25.276Z,2.85
2016-12-20T04:44:18.978Z,2.82
2016-12-20T04:47:12.722Z,2.83
2016-12-20T04:50:06.850Z,2.81
2016-12-20T04:53:00.463Z,2.81
2016-12-20T04:55:54.106Z,2.81
2016-12-20T05:01:41.327Z,2.75
2016-12-20T05:04:34.925Z,2.72
2016-12-20T05:07:28.553Z,2.70
2016-12-20T05:10:22.251Z,2.69
2016-12-20T05:13:16.310Z,2.65
2016-12-20T05:16:10.065Z,2.64
2016-12-20T05:19:03.635Z,2.65
2016-12-20T05:21:57.368Z,2.62
2016-12-20T05:24:51.075Z,2.59
2016-12-20T05:27:44.761Z,2.54
2016-12-20T05:30:38.523Z,2.48
2016-12-20T05:33:32.284Z,2.40
2016-12-20T05:36:26.008Z,2.34
2016-12-20T05:39:19.663Z,2.30
2016-12-20T05:42:13.293Z,2.21
2016-12-20T05:53:48.424Z,2.03
2016-12-20T05:59:35.499Z,1.91
2016-12-20T06:05:22.584Z,1.84
2016-12-20T06:08:16.147Z,1.76
2016-12-20T06:11:09.688Z,1.70
2016-12-20T06:14:03.314Z,1.54
2016-12-20T06:16:56.809Z,1.51
2016-12-20T06:19:51.374Z,1.54
2016-12-20T06:28:31.203Z,1.40
2016-12-20T06:34:19.238Z,1.41
2016-12-20T06:40:05.496Z,1.33
2016-12-20T06:43:00.145Z,1.30
2016-12-20T06:45:52.702Z,1.27
2016-12-20T06:48:46.254Z,1.30
2016-12-20T06:51:39.942Z,1.31
2016-12-20T06:54:33.680Z,1.30
2016-12-20T06:57:27.367Z,1.28
2016-12-20T07:00:21.006Z,1.30
2016-12-20T07:03:14.739Z,1.33
2016-12-20T07:11:55.889Z,1.33
2016-12-20T07:14:49.521Z,1.35
2016-12-20T07:20:36.920Z,1.31
2016-12-20T07:23:30.483Z,1.27
2016-12-20T07:26:23.955Z,1.20
2016-12-20T07:29:17.519Z,1.16
2016-12-20T07:32:11.013Z,1.10
2016-12-20T07:35:04.437Z,1.00
2016-12-20T07:40:51.460Z,0.91
2016-12-20T07:46:39.382Z,0.82
2016-12-20T07:49:31.881Z,0.78
2016-12-20T07:55:18.730Z,0.73
2016-12-20T07:58:12.306Z,0.70
2016-12-20T08:01:05.920Z,0.61
2016-12-20T08:03:59.415Z,0.55
2016-12-20T08:06:52.925Z,0.50
2016-12-20T08:09:46.472Z,0.44
2016-12-20T08:12:40.028Z,0.44
2016-12-20T08:18:26.984Z,0.46
2016-12-20T08:24:14.033Z,0.46
2016-12-20T08:27:07.587Z,0.50
2016-12-20T08:38:42.631Z,0.60
2016-12-20T08:41:36.095Z,0.60
2016-12-20T08:44:29.724Z,0.64
2016-12-20T08:47:23.277Z,0.69
2016-12-20T08:50:16.863Z,0.69
2016-12-20T08:58:57.471Z,0.61
2016-12-20T09:01:50.934Z,0.58
2016-12-20T09:13:24.966Z,0.48
2016-12-20T09:16:18.497Z,0.51
2016-12-20T09:19:12.000Z,0.55
2016-12-20T09:22:05.566Z,0.56
2016-12-20T09:27:52.641Z,0.57
2016-12-20T09:33:39.811Z,0.56
2016-12-20T09:36:33.387Z,0.58
2016-12-20T09:39:26.779Z,0.62
2016-12-20T09:42:21.395Z,0.62
2016-12-20T09:48:08.165Z,0.73
2016-12-20T09:51:01.864Z,0.81
2016-12-20T09:53:55.440Z,0.91
2016-12-20T09:56:50.031Z,0.98
2016-12-20T10:02:36.667Z,1.01
2016-12-20T10:05:30.188Z,1.03
2016-12-20T10:08:23.870Z,1.02
2016-12-20T10:11:17.460Z,0.98
2016-12-20T10:17:04.663Z,1.04
2016-12-20T10:22:51.896Z,1.07
2016-12-20T10:25:45.621Z,1.14
2016-12-20T10:28:39.203Z,1.18
2016-12-20T10:31:32.800Z,1.20
2016-12-20T10:34:26.340Z,1.21
2016-12-20T10:37:19.971Z,1.25
2016-12-20T10:40:13.442Z,1.33
2016-12-20T10:43:07.043Z,1.36
2016-12-20T10:48:54.172Z,1.35
2016-12-20T10:51:47.805Z,1.35
2016-12-20T10:54:41.396Z,1.35
2016-12-20T10:57:35.068Z,1.36
2016-12-20T11:00:28.588Z,1.38
2016-12-20T11:06:15.770Z,1.50
2016-12-20T11:09:09.360Z,1.51
2016-12-20T11:14:56.789Z,1.49
2016-12-20T11:17:50.660Z,1.46
2016-12-20T11:20:44.239Z,1.48
2016-12-20T11:23:37.860Z,1.45
2016-12-20T11:26:31.430Z,1.45
2016-12-20T11:29:25.061Z,1.43
2016-12-20T11:32:18.602Z,1.45
2016-12-20T11:35:12.234Z,1.51
2016-12-20T11:43:54.079Z,1.55
2016-12-20T11:49:40.303Z,1.61
2016-12-20T11:52:33.936Z,1.57
2016-12-20T11:55:27.572Z,1.54
2016-12-20T11:58:21.089Z,1.48
2016-12-20T12:01:14.731Z,1.46
2016-12-20T12:04:08.403Z,1.48
2016-12-20T12:07:02.020Z,1.50
2016-12-20T12:09:55.583Z,1.50
2016-12-20T12:12:49.183Z,1.50
2016-12-20T12:15:42.662Z,1.49
2016-12-20T12:18:36.363Z,1.49
2016-12-20T12:21:29.928Z,1.44
2016-12-20T12:27:17.255Z,1.44
2016-12-20T12:30:10.878Z,1.37
2016-12-20T12:33:04.446Z,1.35
2016-12-20T12:35:57.928Z,1.27
2016-12-20T12:38:51.540Z,1.27
2016-12-20T12:41:45.107Z,1.25
2016-12-20T12:44:38.685Z,1.23
2016-12-20T12:47:32.273Z,1.15
2016-12-20T12:53:19.402Z,1.04
2016-12-20T13:02:00.309Z,0.94
2016-12-20T13:13:35.195Z,0.99
2016-12-20T13:16:28.869Z,1.02
2016-12-20T13:19:22.541Z,1.03
2016-12-20T13:22:16.078Z,1.06
2016-12-20T13:25:09.742Z,1.06
2016-12-20T13:30:58.091Z,1.06
2016-12-20T13:33:50.640Z,1.05
2016-12-20T13:36:44.232Z,1.01
2016-12-20T13:39:38.753Z,1.00
2016-12-20T13:42:31.305Z,1.01
2016-12-20T13:45:24.939Z,1.00
2016-12-20T13:48:18.564Z,1.00
2016-12-20T13:51:12.117Z,1.01
2016-12-20T13:56:59.943Z,1.06
2016-12-20T13:59:53.573Z,1.06
2016-12-20T14:02:47.196Z,1.08
2016-12-20T14:08:34.324Z,1.07
2016-12-20T14:11:28.126Z,1.07
2016-12-20T14:14:22.693Z,1.09
2016-12-20T14:20:08.961Z,1.15
2016-12-20T14:25:56.042Z,1.20
2016-12-20T14:28:49.666Z,1.20
2016-12-20T14:40:24.083Z,1.18
2016-12-20T14:43:17.716Z,1.17
2016-12-20T14:49:04.803Z,1.16
2016-12-20T14:54:51.965Z,1.17
2016-12-20T14:57:45.482Z,1.19
2016-12-20T15:00:39.062Z,1.21
2016-12-20T15:03:32.641Z,1.22
2016-12-20T15:06:27.143Z,1.23
2016-12-20T15:15:06.849Z,1.22
2016-12-20T15:18:00.417Z,1.26
2016-12-20T15:23:47.598Z,1.27
2016-12-20T15:26:41.282Z,1.27
2016-12-20T15:29:34.989Z,1.29
2016-12-20T15:32:28.373Z,1.30
2016-12-20T15:35:21.973Z,1.30
2016-12-20T15:44:02.856Z,1.30
2016-12-20T15:46:56.424Z,1.28
2016-12-20T15:52:43.575Z,1.28
2016-12-20T15:55:37.146Z,1.27
2016-12-20T15:58:30.678Z,1.28
2016-12-20T16:01:24.256Z,1.28
2016-12-20T16:04:17.809Z,1.28
2016-12-20T16:12:58.466Z,1.29
2016-12-20T16:15:52.068Z,1.30
2016-12-20T16:18:45.631Z,1.33
2016-12-20T16:21:39.301Z,1.34
2016-12-20T16:27:26.611Z,1.35
2016-12-20T16:30:20.060Z,1.32
2016-12-20T16:33:13.738Z,1.31
2016-12-20T16:44:48.490Z,1.28
2016-12-20T16:47:42.174Z,1.30
2016-12-20T16:50:35.740Z,1.33
2016-12-20T16:53:29.280Z,1.35
2016-12-20T16:56:23.875Z,1.35
2016-12-20T16:59:16.400Z,1.34
2016-12-20T17:02:09.977Z,1.34
2016-12-20T17:05:03.687Z,1.33
2016-12-20T17:07:57.284Z,1.33
2016-12-20T17:10:50.924Z,1.34
2016-12-20T17:16:38.020Z,1.34
2016-12-20T17:19:32.504Z,1.32
2016-12-20T17:22:25.167Z,1.30
2016-12-20T17:25:20.260Z,1.27
2016-12-20T17:28:12.895Z,1.24
2016-12-20T17:31:06.425Z,1.26
2016-12-20T17:36:53.781Z,1.31
2016-12-20T17:42:41.039Z,1.32
2016-12-20T17:45:35.653Z,1.33
2016-12-20T17:51:21.638Z,1.34
2016-12-20T17:54:15.197Z,1.35
2016-12-20T18:00:02.425Z,1.34
2016-12-20T18:02:56.030Z,1.35
2016-12-20T18:05:49.727Z,1.35
2016-12-20T18:11:36.847Z,1.36
2016-12-20T18:14:30.433Z,1.36
2016-12-20T18:17:24.087Z,1.37
2016-12-20T18:20:17.647Z,1.37
2016-12-20T18:23:11.244Z,1.37
2016-12-20T18:26:04.847Z,1.35
2016-12-20T18:28:58.377Z,1.34
2016-12-20T18:31:51.949Z,1.36
2016-12-20T18:34:45.606Z,1.38
2016-12-20T18:40:32.972Z,1.36
2016-12-20T18:43:27.450Z,1.33
2016-12-20T18:46:19.968Z,1.33
2016-12-20T18:49:13.448Z,1.34
2016-12-20T18:52:06.977Z,1.34
2016-12-20T18:55:00.514Z,1.34
2016-12-20T18:57:54.090Z,1.35
2016-12-20T19:00:47.633Z,1.36
2016-12-20T19:03:41.263Z,1.37
2016-12-20T19:06:34.885Z,1.37
2016-12-20T19:09:29.518Z,1.38
2016-12-20T19:12:22.090Z,1.41
2016-12-20T19:15:15.916Z,1.41
2016-12-20T19:18:09.474Z,1.41
2016-12-20T19:21:02.958Z,1.42
2016-12-20T19:23:56.577Z,1.41
2016-12-20T19:29:43.893Z,1.44
2016-12-20T19:32:37.378Z,1.45
2016-12-20T19:35:30.933Z,1.46
2016-12-20T19:41:18.043Z,1.47
2016-12-20T19:44:11.532Z,1.47
2016-12-20T19:47:05.176Z,1.47
2016-12-20T19:49:58.813Z,1.46
2016-12-20T20:01:33.039Z,1.49
2016-12-20T20:04:26.554Z,1.51
2016-12-20T20:07:20.109Z,1.50
2016-12-20T20:10:14.123Z,1.49
2016-12-20T20:13:07.688Z,1.50
2016-12-20T20:16:01.215Z,1.50
2016-12-20T20:18:54.873Z,1.51
2016-12-20T20:21:48.455Z,1.52
2016-12-20T20:24:42.065Z,1.51
2016-12-20T20:27:35.617Z,1.51
2016-12-20T20:33:22.629Z,1.50
2016-12-20T20:36:16.147Z,1.51
2016-12-20T20:39:10.728Z,1.52
2016-12-20T20:42:03.355Z,1.52
2016-12-20T20:56:30.981Z,1.49
2016-12-20T20:59:24.526Z,1.50
2016-12-20T21:02:17.992Z,1.50
2016-12-20T21:08:06.104Z,1.52
2016-12-20T21:10:58.619Z,1.54
2016-12-20T21:13:52.302Z,1.55
2016-12-20T21:16:45.849Z,1.55
2016-12-20T21:19:40.443Z,1.56
2016-12-20T21:22:33.088Z,1.56
2016-12-20T21:28:21.203Z,1.54
2016-12-20T21:31:14.706Z,1.50
2016-12-20T21:34:07.217Z,1.49
2016-12-20T21:37:00.783Z,1.48
2016-12-20T21:39:54.375Z,1.49
2016-12-20T21:42:47.824Z,1.48
2016-12-20T21:45:42.345Z,1.48
2016-12-20T21:48:34.914Z,1.47
2016-12-20T21:51:28.518Z,1.46
2016-12-20T21:54:22.055Z,1.45
2016-12-20T21:57:15.673Z,1.44
2016-12-20T22:03:02.896Z,1.42
2016-12-20T22:05:56.433Z,1.44
2016-12-20T22:08:50.004Z,1.45
2016-12-20T22:11:43.554Z,1.44
2016-12-20T22:14:36.981Z,1.44
2016-12-20T22:23:17.556Z,1.44
2016-12-20T22:26:12.068Z,1.43
2016-12-20T22:29:04.667Z,1.42
2016-12-20T22:31:58.186Z,1.41
2016-12-20T22:34:51.763Z,1.42
2016-12-20T22:37:45.320Z,1.44
2016-12-20T22:40:38.880Z,1.46
2016-12-20T22:43:32.355Z,1.46
2016-12-20T22:49:19.886Z,1.47
2016-12-20T22:52:14.388Z,1.48
2016-12-20T22:55:06.843Z,1.49
2016-12-20T22:58:00.452Z,1.49
2016-12-20T23:00:54.026Z,1.51
2016-12-20T23:03:47.546Z,1.51
2016-12-20T23:06:41.995Z,1.52
2016-12-20T23:09:34.571Z,1.53
2016-12-20T23:15:22.655Z,1.51
2016-12-20T23:21:08.833Z,1.55
2016-12-20T23:24:02.446Z,1.56
2016-12-20T23:26:56.085Z,1.57
2016-12-20T23:29:49.646Z,1.58
2016-12-20T23:32:43.124Z,1.59
2016-12-20T23:35:36.668Z,1.61
2016-12-20T23:38:30.153Z,1.63
2016-12-20T23:41:23.701Z,1.65
2016-12-20T23:44:17.330Z,1.67
2016-12-20T23:47:10.911Z,1.69
2016-12-20T23:50:05.089Z,1.70
2016-12-20T23:52:59.747Z,1.71
2016-12-20T23:55:52.345Z,1.73
2016-12-20T23:58:46.000Z,1.74
